Time;durP1;ratioP1;P1;durP2;ratioP2;P2;SDS_P1;SDS_P2;PMS_P1;PMS_P2;Temp;Humidity;BMP_temperature;BMP_pressure;BME280_temperature;BME280_humidity;BME280_pressure;Samples;Min_cycle;Max_cycle;Signal;HPM_P1;HPM_P2
2021/08/31 00:01:50;;;;;;;0.10;0.10;;;14.90;95.60;;;;;;5022270;28;20124;-83
2021/08/31 00:04:15;;;;;;;0.10;0.10;;;14.80;95.90;;;;;;5022519;28;20144;-83
2021/08/31 00:06:41;;;;;;;0.20;0.20;;;14.70;95.90;;;;;;5022684;28;20025;-81
2021/08/31 00:09:07;;;;;;;0.10;0.10;;;14.80;96.20;;;;;;5023698;28;20025;-82
2021/08/31 00:11:32;;;;;;;0.20;0.20;;;14.70;96.10;;;;;;5023888;28;20121;-82
2021/08/31 00:13:59;;;;;;;0.10;0.10;;;14.70;96.50;;;;;;5022056;28;20044;-81
2021/08/31 00:16:25;;;;;;;;;;;14.90;96.40;;;;;;5022864;28;20033;-81
2021/08/31 00:18:50;;;;;;;0.03;0.03;;;14.90;96.20;;;;;;5022616;28;19925;-83
2021/08/31 00:21:16;;;;;;;0.40;0.40;;;14.70;96.70;;;;;;5022967;28;20838;-83
2021/08/31 00:23:42;;;;;;;0.00;0.00;;;14.50;96.90;;;;;;5022973;28;20084;-83
2021/08/31 00:26:07;;;;;;;0.13;0.13;;;14.50;97.20;;;;;;5022426;28;20104;-83
2021/08/31 00:28:33;;;;;;;0.00;0.00;;;14.50;97.40;;;;;;5021479;28;20506;-83
2021/08/31 00:30:59;;;;;;;0.20;0.20;;;14.40;97.70;;;;;;5023527;28;20040;-82
2021/08/31 00:33:25;;;;;;;0.10;0.10;;;14.40;98.10;;;;;;5023198;28;20025;-82
2021/08/31 00:35:50;;;;;;;0.10;0.10;;;14.40;98.10;;;;;;5024442;28;20025;-81
2021/08/31 00:38:16;;;;;;;0.10;0.10;;;14.40;98.40;;;;;;5022168;28;20049;-80
2021/08/31 00:40:42;;;;;;;0.20;0.20;;;14.20;98.90;;;;;;5022544;28;20382;-81
2021/08/31 00:43:07;;;;;;;0.10;0.10;;;14.20;99.10;;;;;;5022981;28;20037;-81
2021/08/31 00:45:34;;;;;;;0.10;0.10;;;14.20;99.70;;;;;;5023486;28;20025;-81
2021/08/31 00:48:01;;;;;;;0.30;0.30;;;14.30;99.40;;;;;;5023534;28;20029;-81
2021/08/31 00:50:27;;;;;;;;;;;14.40;99.50;;;;;;5022400;28;20589;-81
2021/08/31 00:52:52;;;;;;;0.10;0.10;;;14.30;99.30;;;;;;5022444;28;19912;-82
2021/08/31 00:55:20;;;;;;;0.20;0.20;;;14.50;99.30;;;;;;5022195;28;20375;-81
2021/08/31 00:57:46;;;;;;;0.10;0.10;;;14.50;99.30;;;;;;5021431;28;20046;-80
2021/08/31 01:00:14;;;;;;;0.10;0.10;;;14.40;99.90;;;;;;5022649;28;20483;-80
2021/08/31 01:02:43;;;;;;;0.30;0.30;;;14.40;99.90;;;;;;5024009;28;20030;-80
2021/08/31 01:05:10;;;;;;;0.00;0.00;;;14.50;99.90;;;;;;5023498;28;20042;-80
2021/08/31 01:07:36;;;;;;;0.10;0.10;;;14.60;99.80;;;;;;5027339;28;20025;-80
2021/08/31 01:10:03;;;;;;;0.00;0.00;;;14.50;99.80;;;;;;5025456;28;20124;-81
2021/08/31 01:12:29;;;;;;;0.10;0.10;;;14.40;99.90;;;;;;5024950;28;20409;-81
2021/08/31 01:14:57;;;;;;;0.10;0.10;;;14.30;99.90;;;;;;5026050;28;20560;-81
2021/08/31 01:17:25;;;;;;;0.10;0.10;;;14.20;99.90;;;;;;5024848;28;20037;-81
2021/08/31 01:19:51;;;;;;;2.92;0.32;;;14.10;99.90;;;;;;5026407;28;20033;-83
2021/08/31 01:22:16;;;;;;;0.20;0.20;;;14.20;99.90;;;;;;5008552;28;20661;-83
2021/08/31 01:24:58;;;;;;;0.10;0.10;;;14.20;99.90;;;;;;5025879;28;20117;-84
2021/08/31 01:27:25;;;;;;;0.32;0.32;;;14.10;99.90;;;;;;5024631;28;20112;-83
2021/08/31 01:29:51;;;;;;;;;;;14.10;99.90;;;;;;5025570;28;20136;-82
2021/08/31 01:32:16;;;;;;;0.00;0.00;;;14.10;99.90;;;;;;5024748;28;20374;-83
2021/08/31 01:34:42;;;;;;;0.10;0.10;;;14.10;99.90;;;;;;5024551;28;20040;-83
2021/08/31 01:37:10;;;;;;;0.10;0.10;;;14.20;99.90;;;;;;5024404;28;21465;-83
2021/08/31 01:39:37;;;;;;;0.03;0.03;;;14.00;99.90;;;;;;5022418;28;21360;-83
2021/08/31 01:42:03;;;;;;;0.25;0.25;;;14.00;99.90;;;;;;5025194;28;20099;-83
2021/08/31 01:44:28;;;;;;;0.10;0.10;;;13.90;99.90;;;;;;5024121;28;20512;-84
2021/08/31 01:46:54;;;;;;;0.10;0.10;;;13.90;99.90;;;;;;5024248;28;20029;-83
2021/08/31 01:49:20;;;;;;;0.10;0.10;;;14.00;99.90;;;;;;5025289;28;20056;-83
2021/08/31 01:51:45;;;;;;;0.37;0.37;;;13.90;99.90;;;;;;5025820;28;20030;-83
2021/08/31 01:54:11;;;;;;;0.03;0.03;;;13.90;99.90;;;;;;5025837;28;20044;-85
2021/08/31 01:56:39;;;;;;;0.30;0.17;;;13.80;99.90;;;;;;5026510;28;20029;-83
2021/08/31 01:59:05;;;;;;;0.20;0.20;;;13.80;99.90;;;;;;5022803;28;20041;-82
2021/08/31 02:01:30;;;;;;;0.30;0.27;;;13.70;99.90;;;;;;5024295;28;20499;-82
2021/08/31 02:03:56;;;;;;;0.23;0.23;;;13.90;99.90;;;;;;5024610;28;20053;-82
2021/08/31 02:06:22;;;;;;;0.10;0.10;;;13.80;99.90;;;;;;5023984;28;20039;-82
2021/08/31 02:08:48;;;;;;;2.57;0.30;;;13.90;99.90;;;;;;5026929;28;20512;-82
2021/08/31 02:11:13;;;;;;;0.07;0.07;;;13.70;99.90;;;;;;5023501;28;20452;-82
2021/08/31 02:13:39;;;;;;;0.00;0.00;;;13.60;99.90;;;;;;5024131;28;20034;-85
2021/08/31 02:16:05;;;;;;;0.07;0.07;;;13.60;99.90;;;;;;5023081;28;20041;-84
2021/08/31 02:18:31;;;;;;;0.20;0.20;;;13.70;99.90;;;;;;5023576;28;20034;-85
2021/08/31 02:20:56;;;;;;;0.17;0.17;;;13.50;99.90;;;;;;5023484;28;20041;-83
2021/08/31 02:23:22;;;;;;;0.30;0.30;;;13.50;99.90;;;;;;5023875;28;20036;-83
2021/08/31 02:25:48;;;;;;;0.00;0.00;;;13.40;99.90;;;;;;5025010;28;20025;-84
2021/08/31 02:28:13;;;;;;;0.07;0.07;;;13.40;99.90;;;;;;5024934;28;20040;-83
2021/08/31 02:30:39;;;;;;;0.30;0.30;;;13.60;99.90;;;;;;5023355;28;20031;-82
2021/08/31 02:33:05;;;;;;;0.10;0.10;;;13.60;99.90;;;;;;5025599;28;20530;-83
2021/08/31 02:35:31;;;;;;;0.10;0.10;;;13.50;99.90;;;;;;5025462;28;20098;-82
2021/08/31 02:37:57;;;;;;;0.33;0.20;;;13.40;99.90;;;;;;5020343;28;20042;-82
2021/08/31 02:40:23;;;;;;;0.00;0.00;;;13.50;99.90;;;;;;5023443;28;20840;-82
2021/08/31 02:42:48;;;;;;;0.10;0.10;;;13.40;99.90;;;;;;5023277;28;20056;-82
2021/08/31 02:45:14;;;;;;;0.27;0.27;;;13.40;99.90;;;;;;5023981;28;20025;-82
2021/08/31 02:47:40;;;;;;;0.10;0.10;;;13.30;99.90;;;;;;5025836;28;20032;-82
2021/08/31 02:50:06;;;;;;;0.30;0.30;;;13.40;99.90;;;;;;5023692;28;20168;-82
2021/08/31 02:52:32;;;;;;;0.32;0.32;;;13.50;99.90;;;;;;5024476;28;20040;-85
2021/08/31 02:54:58;;;;;;;0.17;0.17;;;13.50;99.90;;;;;;5024224;28;20034;-85
2021/08/31 02:57:23;;;;;;;0.10;0.10;;;13.40;99.90;;;;;;5022756;28;20091;-85
2021/08/31 02:59:49;;;;;;;0.00;0.00;;;13.50;99.90;;;;;;5025447;28;20033;-85
2021/08/31 03:02:15;;;;;;;0.10;0.10;;;13.40;99.90;;;;;;5022951;28;20037;-84
2021/08/31 03:04:44;;;;;;;0.10;0.10;;;13.40;99.90;;;;;;5022766;28;20535;-81
2021/08/31 03:07:15;;;;;;;0.00;0.00;;;13.30;99.90;;;;;;5023636;28;20025;-81
2021/08/31 03:09:41;;;;;;;0.10;0.10;;;13.40;99.90;;;;;;5022853;28;20412;-81
2021/08/31 03:12:08;;;;;;;1.35;0.45;;;13.30;99.90;;;;;;5024535;28;20040;-84
2021/08/31 03:14:33;;;;;;;0.10;0.10;;;13.50;99.90;;;;;;5024457;28;20666;-83
2021/08/31 03:16:59;;;;;;;1.20;0.83;;;13.50;99.90;;;;;;5022309;28;20044;-83
2021/08/31 03:19:26;;;;;;;0.10;0.10;;;13.50;99.90;;;;;;5023393;28;20033;-83
2021/08/31 03:21:56;;;;;;;0.10;0.10;;;13.40;99.90;;;;;;5022832;28;20497;-83
2021/08/31 03:24:23;;;;;;;0.30;0.30;;;13.20;99.90;;;;;;5023758;28;20487;-83
2021/08/31 03:26:49;;;;;;;0.10;0.10;;;13.40;99.90;;;;;;5023575;28;20116;-82
2021/08/31 03:29:15;;;;;;;0.20;0.20;;;13.20;99.90;;;;;;5022929;28;20112;-83
2021/08/31 03:31:41;;;;;;;0.47;0.30;;;13.30;99.90;;;;;;5022397;28;20069;-82
2021/08/31 03:34:06;;;;;;;0.17;0.17;;;13.30;99.90;;;;;;5021112;28;20071;-82
2021/08/31 03:36:32;;;;;;;9.13;0.50;;;13.20;99.90;;;;;;5021836;28;20025;-83
2021/08/31 03:38:58;;;;;;;0.10;0.10;;;13.00;99.90;;;;;;5024781;28;20047;-83
2021/08/31 03:41:24;;;;;;;0.10;0.10;;;13.00;99.90;;;;;;5022096;28;20030;-83
2021/08/31 03:43:50;;;;;;;0.20;0.20;;;13.00;99.90;;;;;;5022534;28;20040;-82
2021/08/31 03:46:15;;;;;;;0.10;0.10;;;13.00;99.90;;;;;;5023050;28;20037;-83
2021/08/31 03:48:41;;;;;;;0.10;0.10;;;13.00;99.90;;;;;;5021151;28;20033;-83
2021/08/31 03:51:07;;;;;;;0.10;0.10;;;12.80;99.90;;;;;;5021277;28;20029;-81
2021/08/31 03:53:33;;;;;;;0.10;0.10;;;13.10;99.90;;;;;;5022587;28;20029;-81
2021/08/31 03:55:58;;;;;;;0.10;0.10;;;13.00;99.90;;;;;;5022713;28;20117;-82
2021/08/31 03:58:24;;;;;;;0.05;0.05;;;13.00;99.90;;;;;;5022090;28;20033;-81
2021/08/31 04:00:50;;;;;;;0.10;0.10;;;12.90;99.90;;;;;;5022116;28;20053;-83
2021/08/31 04:03:16;;;;;;;0.10;0.10;;;13.00;99.90;;;;;;5023923;28;20044;-83
2021/08/31 04:05:41;;;;;;;0.10;0.10;;;13.30;99.90;;;;;;5025470;28;20029;-83
2021/08/31 04:08:07;;;;;;;3.23;1.30;;;13.40;99.90;;;;;;5024112;28;20033;-83
2021/08/31 04:10:33;;;;;;;0.28;0.28;;;13.40;99.90;;;;;;5024051;28;20025;-83
2021/08/31 04:12:59;;;;;;;0.05;0.05;;;13.40;99.90;;;;;;5006617;28;20415;-82
2021/08/31 04:15:24;;;;;;;0.17;0.17;;;13.40;99.90;;;;;;5022343;28;20022;-82
2021/08/31 04:17:50;;;;;;;0.10;0.10;;;13.30;99.90;;;;;;5023722;28;20032;-82
2021/08/31 04:20:16;;;;;;;0.10;0.10;;;13.20;99.90;;;;;;5021504;28;20416;-81
2021/08/31 04:22:41;;;;;;;0.38;0.38;;;13.20;99.90;;;;;;5021967;28;20029;-84
2021/08/31 04:25:08;;;;;;;0.10;0.10;;;13.20;99.90;;;;;;5023472;28;20389;-84
2021/08/31 04:27:33;;;;;;;0.15;0.15;;;13.30;99.90;;;;;;5022242;28;20041;-84
2021/08/31 04:29:59;;;;;;;0.10;0.10;;;13.10;99.90;;;;;;5023086;28;20033;-84
2021/08/31 04:32:25;;;;;;;0.43;0.20;;;13.10;99.90;;;;;;5022491;28;20463;-85
2021/08/31 04:34:52;;;;;;;0.10;0.10;;;13.00;99.90;;;;;;5022725;28;20026;-84
2021/08/31 04:37:18;;;;;;;0.13;0.13;;;13.10;99.90;;;;;;5022227;28;20025;-84
2021/08/31 04:39:44;;;;;;;0.20;0.20;;;13.10;99.90;;;;;;5022763;28;20042;-84
2021/08/31 04:42:10;;;;;;;0.10;0.10;;;13.00;99.90;;;;;;5027248;28;20052;-83
2021/08/31 04:44:36;;;;;;;0.10;0.10;;;12.90;99.90;;;;;;5025740;28;20702;-84
2021/08/31 04:47:02;;;;;;;0.20;0.20;;;12.80;99.90;;;;;;5023554;28;20025;-84
2021/08/31 04:49:28;;;;;;;0.13;0.13;;;12.80;99.90;;;;;;5025367;28;20033;-84
2021/08/31 04:51:53;;;;;;;0.40;0.40;;;12.80;99.90;;;;;;5025947;28;20130;-84
2021/08/31 04:54:19;;;;;;;0.10;0.10;;;12.70;99.90;;;;;;5026665;28;20033;-83
2021/08/31 04:56:45;;;;;;;0.30;0.30;;;12.60;99.90;;;;;;5027696;28;20043;-83
2021/08/31 04:59:11;;;;;;;1.45;0.68;;;12.60;99.90;;;;;;5026091;28;20152;-83
2021/08/31 05:01:36;;;;;;;0.10;0.10;;;12.70;99.90;;;;;;5024293;28;20124;-82
2021/08/31 05:04:02;;;;;;;0.28;0.20;;;12.60;99.90;;;;;;5025094;28;20050;-82
2021/08/31 05:06:28;;;;;;;0.20;0.20;;;12.40;99.90;;;;;;5023750;28;20132;-82
2021/08/31 05:08:54;;;;;;;0.10;0.10;;;12.40;99.90;;;;;;5027683;28;20025;-86
2021/08/31 05:11:21;;;;;;;0.20;0.20;;;12.50;99.90;;;;;;5026027;28;20028;-84
2021/08/31 05:13:46;;;;;;;0.00;0.00;;;12.70;99.90;;;;;;5021680;28;20501;-86
2021/08/31 05:16:14;;;;;;;0.20;0.20;;;12.40;99.90;;;;;;5025746;28;20080;-86
2021/08/31 05:18:40;;;;;;;0.63;0.32;;;12.30;99.90;;;;;;5025354;28;20079;-88
2021/08/31 05:21:07;;;;;;;0.52;0.45;;;12.40;99.90;;;;;;5027102;28;20024;-88
2021/08/31 05:23:33;;;;;;;0.10;0.10;;;12.30;99.90;;;;;;5024589;28;20042;-86
2021/08/31 05:26:00;;;;;;;0.13;0.13;;;12.30;99.90;;;;;;5024605;28;20033;-82
2021/08/31 05:28:25;;;;;;;0.10;0.10;;;12.60;99.90;;;;;;5025427;28;20068;-80
2021/08/31 05:30:51;;;;;;;0.23;0.23;;;13.40;99.90;;;;;;5025238;28;20041;-83
2021/08/31 05:33:17;;;;;;;0.10;0.10;;;13.30;99.90;;;;;;5026126;28;20113;-83
2021/08/31 05:35:43;;;;;;;0.30;0.30;;;13.10;99.90;;;;;;5025701;28;20047;-83
2021/08/31 05:38:08;;;;;;;0.08;0.08;;;13.80;99.90;;;;;;5025811;28;20773;-83
2021/08/31 05:40:34;;;;;;;0.10;0.10;;;14.30;99.90;;;;;;5024339;28;20492;-83
2021/08/31 05:43:00;;;;;;;0.10;0.10;;;14.40;99.90;;;;;;5024953;28;20025;-83
2021/08/31 05:45:28;;;;;;;0.10;0.10;;;14.70;99.90;;;;;;5023439;28;20034;-83
2021/08/31 05:47:54;;;;;;;0.10;0.10;;;14.90;99.90;;;;;;5027029;28;20017;-85
2021/08/31 05:50:20;;;;;;;0.03;0.03;;;15.10;99.90;;;;;;5024886;28;20041;-83
2021/08/31 05:52:46;;;;;;;0.10;0.10;;;15.20;99.90;;;;;;5007804;28;20131;-84
2021/08/31 05:55:12;;;;;;;0.37;0.37;;;15.60;99.90;;;;;;5025113;28;20037;-84
2021/08/31 05:57:37;;;;;;;0.65;0.65;;;15.90;99.90;;;;;;5024702;28;20588;-82
2021/08/31 06:00:05;;;;;;;0.20;0.20;;;16.70;99.90;;;;;;5025607;28;20567;-82
2021/08/31 06:02:30;;;;;;;0.45;0.45;;;17.40;99.90;;;;;;5024874;28;20120;-84
2021/08/31 06:04:56;;;;;;;0.10;0.10;;;18.00;99.90;;;;;;5023998;28;20120;-84
2021/08/31 06:07:24;;;;;;;0.47;0.47;;;18.50;99.90;;;;;;5021967;28;20484;-85
2021/08/31 06:09:49;;;;;;;0.15;0.15;;;18.50;99.40;;;;;;5023338;28;20409;-85
2021/08/31 06:12:15;;;;;;;0.17;0.17;;;18.50;99.70;;;;;;5026472;28;20498;-85
2021/08/31 06:14:41;;;;;;;0.20;0.20;;;18.80;99.00;;;;;;5025138;28;20139;-84
2021/08/31 06:17:08;;;;;;;0.10;0.10;;;19.80;96.10;;;;;;5025245;28;20026;-85
2021/08/31 06:19:35;;;;;;;0.08;0.08;;;20.10;94.90;;;;;;5024852;28;20061;-85
2021/08/31 06:22:01;;;;;;;0.00;0.00;;;19.80;96.40;;;;;;5025239;28;20463;-86
2021/08/31 06:24:27;;;;;;;0.13;0.13;;;20.70;93.70;;;;;;5023368;28;20069;-85
2021/08/31 06:26:53;;;;;;;0.30;0.10;;;21.50;91.80;;;;;;5027471;28;20102;-85
2021/08/31 06:29:19;;;;;;;0.10;0.10;;;21.50;90.40;;;;;;5024980;28;20037;-88
2021/08/31 06:31:44;;;;;;;0.13;0.13;;;20.90;91.70;;;;;;5025161;28;20109;-90
2021/08/31 06:34:10;;;;;;;0.77;0.40;;;20.80;91.70;;;;;;5021201;28;20025;-85
2021/08/31 06:36:36;;;;;;;0.13;0.13;;;20.70;90.10;;;;;;5011248;28;20585;-83
2021/08/31 06:39:02;;;;;;;0.10;0.10;;;21.70;90.30;;;;;;5011775;28;20847;-84
2021/08/31 06:41:28;;;;;;;0.17;0.17;;;21.80;89.40;;;;;;5007505;28;20026;-87
2021/08/31 06:43:54;;;;;;;0.00;0.00;;;21.90;87.70;;;;;;5025541;28;20050;-87
2021/08/31 06:46:20;;;;;;;0.00;0.00;;;22.50;83.40;;;;;;5015895;28;20021;-89
2021/08/31 06:48:45;;;;;;;1.03;0.37;;;21.30;88.90;;;;;;5012121;28;20041;-86
2021/08/31 06:51:12;;;;;;;0.30;0.30;;;21.80;84.50;;;;;;5009066;28;20091;-86
2021/08/31 06:53:39;;;;;;;0.45;0.25;;;21.90;85.20;;;;;;5015704;28;20277;-85
2021/08/31 06:56:05;;;;;;;0.10;0.10;;;22.40;80.80;;;;;;5011991;28;20070;-86
2021/08/31 06:58:31;;;;;;;0.22;0.17;;;22.20;83.10;;;;;;5014774;28;20041;-85
2021/08/31 07:00:57;;;;;;;2.25;0.22;;;22.40;82.10;;;;;;5007639;28;20094;-84
2021/08/31 07:03:22;;;;;;;0.30;0.20;;;24.00;74.80;;;;;;5005805;28;21225;-84
2021/08/31 07:05:49;;;;;;;0.27;0.20;;;24.30;72.30;;;;;;5012652;28;20276;-87
2021/08/31 07:08:14;;;;;;;0.00;0.00;;;24.30;73.40;;;;;;5026660;28;20038;-86
2021/08/31 07:10:40;;;;;;;0.87;0.30;;;22.90;76.70;;;;;;5010505;28;20083;-85
2021/08/31 07:13:06;;;;;;;0.30;0.30;;;23.50;74.00;;;;;;5008744;28;20691;-87
2021/08/31 07:15:32;;;;;;;0.25;0.20;;;23.00;76.00;;;;;;5006419;28;20034;-85
2021/08/31 07:17:58;;;;;;;0.05;0.05;;;23.50;72.10;;;;;;5011024;28;20049;-85
2021/08/31 07:20:24;;;;;;;0.10;0.10;;;24.20;70.50;;;;;;5015125;28;20055;-84
2021/08/31 07:22:50;;;;;;;0.10;0.10;;;23.90;83.10;;;;;;5015196;28;20037;-82
2021/08/31 07:25:16;;;;;;;0.30;0.30;;;22.90;75.20;;;;;;5016296;28;20025;-81
2021/08/31 07:27:42;;;;;;;0.15;0.15;;;23.80;73.70;;;;;;5011606;28;20064;-81
2021/08/31 07:30:08;;;;;;;0.00;0.00;;;23.20;73.70;;;;;;5019362;28;20124;-81
2021/08/31 07:32:34;;;;;;;0.10;0.10;;;24.20;70.80;;;;;;5021426;28;20454;-81
2021/08/31 07:35:00;;;;;;;0.10;0.00;;;23.10;76.60;;;;;;5015896;28;20029;-80
2021/08/31 07:37:26;;;;;;;3.10;0.43;;;24.30;67.50;;;;;;5011614;28;20028;-80
2021/08/31 07:39:52;;;;;;;0.00;0.00;;;24.90;67.10;;;;;;5007926;28;20120;-80
2021/08/31 07:42:17;;;;;;;6.63;1.27;;;24.40;69.10;;;;;;5012271;28;20108;-80
2021/08/31 07:44:43;;;;;;;0.00;0.00;;;25.10;65.00;;;;;;5010422;28;20764;-80
2021/08/31 07:47:09;;;;;;;0.30;0.30;;;26.80;59.00;;;;;;5012482;28;20695;-81
2021/08/31 07:49:35;;;;;;;2.45;0.88;;;26.40;59.30;;;;;;5009834;28;20033;-80
2021/08/31 07:52:01;;;;;;;0.10;0.10;;;25.80;57.60;;;;;;5014250;28;20150;-80
2021/08/31 07:54:27;;;;;;;0.63;0.32;;;25.80;61.80;;;;;;5022057;28;20034;-80
2021/08/31 07:56:53;;;;;;;0.00;0.00;;;25.70;58.70;;;;;;5011039;28;20044;-79
2021/08/31 07:59:19;;;;;;;0.00;0.00;;;26.60;51.50;;;;;;5010535;28;20064;-80
2021/08/31 08:01:45;;;;;;;0.00;0.00;;;26.70;59.50;;;;;;5009213;28;20033;-80
2021/08/31 08:04:10;;;;;;;0.25;0.25;;;26.80;49.30;;;;;;5020278;28;20063;-79
2021/08/31 08:06:36;;;;;;;0.25;0.25;;;29.00;46.20;;;;;;5022627;28;20048;-79
2021/08/31 08:09:03;;;;;;;0.20;0.13;;;27.90;46.80;;;;;;5024817;28;20037;-79
2021/08/31 08:11:30;;;;;;;0.10;0.10;;;30.00;42.90;;;;;;5022688;28;20060;-79
2021/08/31 08:13:55;;;;;;;0.15;0.15;;;30.20;37.80;;;;;;5021018;28;20045;-79
2021/08/31 08:16:21;;;;;;;0.75;0.22;;;27.20;43.20;;;;;;5025286;28;20033;-79
2021/08/31 08:18:48;;;;;;;0.35;0.35;;;26.60;45.20;;;;;;5025826;28;20049;-79
2021/08/31 08:21:14;;;;;;;0.40;0.40;;;26.50;45.30;;;;;;5024804;28;20095;-79
2021/08/31 08:23:40;;;;;;;0.38;0.38;;;27.80;43.20;;;;;;5027972;28;20033;-79
2021/08/31 08:26:07;;;;;;;0.82;0.20;;;27.20;40.40;;;;;;5026139;28;20033;-79
2021/08/31 08:28:33;;;;;;;0.20;0.20;;;28.60;41.10;;;;;;5025572;28;20079;-79
2021/08/31 08:30:58;;;;;;;0.32;0.32;;;27.30;43.60;;;;;;5025399;28;20029;-79
2021/08/31 08:33:24;;;;;;;0.17;0.17;;;27.60;42.30;;;;;;5025604;28;20493;-79
2021/08/31 08:35:50;;;;;;;0.22;0.20;;;28.00;39.10;;;;;;5028090;28;20032;-79
2021/08/31 08:38:17;;;;;;;0.25;0.25;;;27.50;40.20;;;;;;5025369;28;20050;-79
2021/08/31 08:40:43;;;;;;;0.30;0.30;;;27.70;41.60;;;;;;5025392;28;20041;-79
2021/08/31 08:43:11;;;;;;;0.45;0.35;;;28.60;37.30;;;;;;5025936;28;20032;-79
2021/08/31 08:45:41;;;;;;;0.20;0.20;;;26.60;45.50;;;;;;5025304;28;20041;-79
2021/08/31 08:48:06;;;;;;;0.75;0.30;;;28.70;37.70;;;;;;5008808;28;20030;-79
2021/08/31 08:50:33;;;;;;;0.20;0.20;;;29.30;35.90;;;;;;5026109;28;20041;-79
2021/08/31 08:52:59;;;;;;;0.05;0.05;;;29.00;35.40;;;;;;5025600;28;20804;-79
2021/08/31 08:55:26;;;;;;;0.15;0.15;;;29.50;32.60;;;;;;5024632;28;20088;-79
2021/08/31 08:57:52;;;;;;;0.13;0.13;;;30.40;31.40;;;;;;5025441;28;20038;-79
2021/08/31 09:00:20;;;;;;;0.00;0.00;;;29.80;32.00;;;;;;5025062;28;20559;-79
2021/08/31 09:26:07;;;;;;;1.02;0.20;;;30.20;28.00;;;;;;6243322;22;20247;-86
2021/08/31 09:28:39;;;;;;;0.30;0.30;;;32.70;24.60;;;;;;6243137;22;20771;-86
2021/08/31 09:31:14;;;;;;;0.00;0.00;;;32.70;22.30;;;;;;6242240;22;20015;-84
2021/08/31 09:33:42;;;;;;;7.97;0.57;;;31.10;25.40;;;;;;6243589;22;20008;-85
2021/08/31 09:36:09;;;;;;;0.15;0.10;;;31.50;25.20;;;;;;6240589;23;20015;-85
2021/08/31 09:38:46;;;;;;;0.40;0.30;;;30.70;24.70;;;;;;6242368;22;20027;-85
2021/08/31 09:41:35;;;;;;;0.28;0.22;;;31.70;21.70;;;;;;6242543;23;20036;-85
2021/08/31 09:44:05;;;;;;;0.80;0.50;;;30.50;22.00;;;;;;6242230;22;20477;-84
2021/08/31 09:47:01;;;;;;;1.10;0.38;;;31.80;22.60;;;;;;6242424;22;20004;-86
2021/08/31 09:49:28;;;;;;;0.32;0.32;;;31.50;23.00;;;;;;6242014;22;20008;-84
2021/08/31 09:52:09;;;;;;;1.80;0.17;;;29.00;25.20;;;;;;6242625;22;20000;-84
2021/08/31 09:54:42;;;;;;;0.05;0.05;;;28.60;29.30;;;;;;6243295;22;20010;-84
2021/08/31 09:57:28;;;;;;;0.65;0.17;;;31.70;23.80;;;;;;6241018;23;20533;-86
2021/08/31 09:59:55;;;;;;;0.00;0.00;;;29.20;27.10;;;;;;6242366;22;20024;-86
2021/08/31 10:02:20;;;;;;;1.17;0.35;;;31.60;21.20;;;;;;6242895;22;20501;-85
2021/08/31 10:04:46;;;;;;;0.22;0.22;;;32.80;18.40;;;;;;6243178;22;20018;-84
2021/08/31 10:07:13;;;;;;;1.25;0.85;;;33.10;19.00;;;;;;6243631;22;20098;-83
2021/08/31 10:09:39;;;;;;;0.25;0.25;;;30.80;20.30;;;;;;6242305;22;20004;-84
2021/08/31 10:12:09;;;;;;;2.10;0.65;;;30.30;23.50;;;;;;6241141;23;20008;-85
2021/08/31 10:14:45;;;;;;;0.30;0.15;;;30.80;23.60;;;;;;6241564;22;20477;-84
2021/08/31 10:17:11;;;;;;;0.10;0.10;;;30.00;20.70;;;;;;6236075;22;20047;-84
2021/08/31 10:19:40;;;;;;;;;;;30.80;19.80;;;;;;6235109;23;20030;-84
2021/08/31 10:22:07;;;;;;;0.20;0.20;;;32.10;19.80;;;;;;6235735;22;20086;-84
2021/08/31 10:24:33;;;;;;;3.22;0.57;;;31.50;19.20;;;;;;6239019;22;20039;-84
2021/08/31 10:27:35;;;;;;;0.15;0.13;;;29.70;24.50;;;;;;6265899;22;20079;-84
2021/08/31 10:30:16;;;;;;;1.00;0.32;;;29.50;23.50;;;;;;6237692;22;20122;-85
2021/08/31 10:32:44;;;;;;;0.15;0.15;;;31.90;20.20;;;;;;6265815;22;20781;-86
2021/08/31 10:35:36;;;;;;;0.30;0.30;;;30.90;19.00;;;;;;6267018;22;20095;-85
2021/08/31 10:38:04;;;;;;;0.30;0.30;;;29.60;22.50;;;;;;6262445;22;20065;-86
2021/08/31 10:40:39;;;;;;;0.77;0.77;;;29.30;24.30;;;;;;6263333;22;20070;-86
2021/08/31 10:43:06;;;;;;;0.60;0.60;;;29.40;28.90;;;;;;6263967;22;20077;-86
2021/08/31 10:45:39;;;;;;;0.30;0.30;;;28.60;30.00;;;;;;6265296;22;20021;-85
2021/08/31 10:48:23;;;;;;;0.00;0.00;;;27.90;32.90;;;;;;6265448;22;20050;-86
2021/08/31 10:50:58;;;;;;;0.43;0.22;;;26.00;34.30;;;;;;6265564;22;20030;-85
2021/08/31 10:53:59;;;;;;;0.30;0.17;;;25.30;37.30;;;;;;6265551;22;20003;-86
2021/08/31 10:56:27;;;;;;;0.10;0.10;;;25.70;35.70;;;;;;6088154;23;20093;-87
2021/08/31 10:59:01;;;;;;;0.10;0.10;;;25.70;35.40;;;;;;6111587;23;20774;-85
2021/08/31 11:01:34;;;;;;;0.52;0.52;;;25.00;37.40;;;;;;6087178;23;20014;-86
2021/08/31 11:04:00;;;;;;;0.70;0.55;;;24.50;38.20;;;;;;6111634;23;20028;-86
2021/08/31 11:06:33;;;;;;;0.00;0.00;;;24.40;38.70;;;;;;6109244;23;20037;-86
2021/08/31 11:09:07;;;;;;;0.10;0.10;;;24.80;38.80;;;;;;6111884;23;20841;-87
2021/08/31 11:11:33;;;;;;;0.77;0.30;;;25.60;37.50;;;;;;6112006;23;20085;-86
2021/08/31 11:13:59;;;;;;;0.00;0.00;;;25.80;37.40;;;;;;6112646;23;20009;-86
2021/08/31 11:16:27;;;;;;;0.00;0.00;;;25.20;38.00;;;;;;6112737;23;20010;-86
2021/08/31 11:18:53;;;;;;;0.38;0.38;;;25.50;37.70;;;;;;6112659;23;20046;-86
2021/08/31 11:21:19;;;;;;;0.30;0.30;;;25.30;38.20;;;;;;6112703;23;20009;-86
2021/08/31 11:23:45;;;;;;;0.05;0.05;;;24.70;37.80;;;;;;6112917;23;20064;-87
2021/08/31 11:26:24;;;;;;;0.60;0.57;;;24.40;39.80;;;;;;6111870;23;20041;-86
2021/08/31 11:28:52;;;;;;;0.40;0.30;;;24.30;41.00;;;;;;6112347;23;20245;-86
2021/08/31 11:31:25;;;;;;;0.00;0.00;;;24.60;39.90;;;;;;6244694;22;20422;-86
2021/08/31 11:33:53;;;;;;;0.52;0.47;;;24.40;40.10;;;;;;6263217;22;20008;-86
2021/08/31 11:36:24;;;;;;;0.40;0.40;;;24.50;40.20;;;;;;6265222;22;20021;-86
2021/08/31 11:39:04;;;;;;;0.52;0.35;;;24.20;42.20;;;;;;6265376;22;20090;-87
2021/08/31 11:41:40;;;;;;;0.17;0.10;;;23.80;42.30;;;;;;6265004;22;20003;-87
2021/08/31 11:44:13;;;;;;;0.15;0.13;;;23.90;41.40;;;;;;6265069;22;20544;-85
2021/08/31 11:46:45;;;;;;;0.35;0.35;;;24.10;41.40;;;;;;6238070;22;20098;-87
2021/08/31 11:49:19;;;;;;;0.40;0.40;;;24.50;40.90;;;;;;6265345;22;20016;-86
2021/08/31 11:52:04;;;;;;;0.20;0.20;;;24.40;41.30;;;;;;6264806;22;20003;-86
2021/08/31 11:54:34;;;;;;;1.15;0.47;;;24.40;41.20;;;;;;6265159;22;20071;-86
2021/08/31 11:57:03;;;;;;;0.10;0.10;;;24.50;41.60;;;;;;6265441;22;20532;-86
2021/08/31 11:59:49;;;;;;;0.28;0.20;;;24.60;40.80;;;;;;6238369;22;20011;-86
2021/08/31 12:02:30;;;;;;;0.20;0.20;;;24.30;42.80;;;;;;6265320;22;20003;-86
2021/08/31 12:04:57;;;;;;;0.15;0.15;;;24.00;41.90;;;;;;6265622;22;20023;-86
2021/08/31 12:07:27;;;;;;;0.98;0.47;;;24.40;41.20;;;;;;6265754;22;20432;-86
2021/08/31 12:09:56;;;;;;;0.43;0.43;;;24.30;41.10;;;;;;6238060;22;20019;-86
2021/08/31 12:12:22;;;;;;;0.70;0.55;;;24.00;41.50;;;;;;6265928;22;20014;-86
2021/08/31 12:14:49;;;;;;;0.10;0.10;;;24.20;40.20;;;;;;6237881;22;20034;-86
2021/08/31 12:17:37;;;;;;;0.35;0.35;;;24.30;41.40;;;;;;6264877;22;20008;-86
2021/08/31 12:20:09;;;;;;;0.13;0.10;;;24.40;41.00;;;;;;6265043;22;20684;-86
2021/08/31 12:22:37;;;;;;;0.10;0.10;;;24.30;40.80;;;;;;6264584;22;20011;-86
2021/08/31 12:25:04;;;;;;;0.00;0.00;;;24.00;41.30;;;;;;6236929;22;20023;-86
2021/08/31 12:27:49;;;;;;;;;;;24.00;41.60;;;;;;6265506;22;20071;-85
2021/08/31 12:30:18;;;;;;;0.30;0.30;;;24.20;41.10;;;;;;6263900;22;19949;-86
2021/08/31 12:32:53;;;;;;;0.05;0.05;;;24.00;40.50;;;;;;6265538;22;20497;-86
2021/08/31 12:35:29;;;;;;;0.93;0.73;;;24.40;41.70;;;;;;6264934;22;20065;-86
2021/08/31 12:38:12;;;;;;;0.95;0.80;;;24.80;40.50;;;;;;6264328;22;20065;-87
2021/08/31 12:40:58;;;;;;;0.55;0.35;;;24.90;40.30;;;;;;6264191;22;20046;-86
2021/08/31 12:43:30;;;;;;;0.25;0.25;;;24.70;39.70;;;;;;6265181;22;20605;-86
2021/08/31 12:45:59;;;;;;;0.32;0.30;;;24.60;40.50;;;;;;6236747;22;20393;-86
2021/08/31 12:48:36;;;;;;;0.50;0.50;;;24.30;39.70;;;;;;6264553;22;20007;-86
2021/08/31 12:51:05;;;;;;;0.32;0.25;;;24.70;40.10;;;;;;6265144;22;20012;-86
2021/08/31 12:53:36;;;;;;;0.50;0.50;;;24.60;40.50;;;;;;6265646;22;20034;-85
2021/08/31 12:56:05;;;;;;;0.00;0.00;;;24.30;40.50;;;;;;6265433;22;20187;-86
2021/08/31 12:58:32;;;;;;;0.45;0.45;;;24.10;40.90;;;;;;6265586;22;20327;-86
2021/08/31 13:01:15;;;;;;;1.30;0.57;;;24.20;40.90;;;;;;6265132;22;20003;-86
2021/08/31 13:03:52;;;;;;;0.30;0.30;;;24.10;40.90;;;;;;6236908;22;20414;-86
2021/08/31 13:06:42;;;;;;;0.20;0.20;;;24.10;40.40;;;;;;6264209;22;20031;-87
2021/08/31 13:09:15;;;;;;;0.43;0.32;;;24.40;41.30;;;;;;6263482;22;20008;-88
2021/08/31 13:11:46;;;;;;;5.05;0.10;;;23.90;40.40;;;;;;6237129;22;20011;-87
2021/08/31 13:14:15;;;;;;;0.20;0.20;;;23.90;41.90;;;;;;6263350;22;20186;-87
2021/08/31 13:16:42;;;;;;;0.28;0.28;;;24.20;40.60;;;;;;6263449;22;20014;-86